Time;durP1;ratioP1;P1;durP2;ratioP2;P2;SDS_P1;SDS_P2;PMS_P1;PMS_P2;Temp;Humidity;BMP_temperature;BMP_pressure;BME280_temperature;BME280_humidity;BME280_pressure;Samples;Min_cycle;Max_cycle;Signal;HPM_P1;HPM_P2
2022/04/05 00:00:06;;;;;;;5.13;1.73;;;6.90;99.90;;;;;;5018545;28;20037;-75
2022/04/05 00:02:32;;;;;;;7.15;2.58;;;6.90;99.90;;;;;;5051021;28;20049;-74
2022/04/05 00:04:58;;;;;;;9.95;2.78;;;6.90;99.90;;;;;;5050897;28;20408;-75
2022/04/05 00:07:24;;;;;;;9.68;2.75;;;6.90;99.90;;;;;;5018373;28;20102;-75
2022/04/05 00:09:50;;;;;;;5.63;1.83;;;6.90;99.90;;;;;;5018238;28;20040;-75
2022/04/05 00:12:20;;;;;;;7.10;2.15;;;6.90;99.90;;;;;;5034776;28;20037;-74
2022/04/05 00:14:48;;;;;;;6.53;2.05;;;6.90;99.90;;;;;;5051397;28;20405;-74
2022/04/05 00:17:14;;;;;;;12.18;1.95;;;6.90;99.90;;;;;;5018811;28;20033;-74
2022/04/05 00:19:40;;;;;;;7.45;1.75;;;6.80;99.90;;;;;;5051152;28;20041;-75
2022/04/05 00:22:06;;;;;;;8.18;2.03;;;6.90;99.90;;;;;;5051086;28;20041;-75
2022/04/05 00:24:31;;;;;;;4.72;1.67;;;6.80;99.90;;;;;;5034442;28;20057;-74
2022/04/05 00:26:57;;;;;;;5.93;1.45;;;6.80;99.90;;;;;;5050930;28;20061;-75
2022/04/05 00:29:24;;;;;;;6.07;1.85;;;6.80;99.90;;;;;;5034434;28;20076;-74
2022/04/05 00:31:50;;;;;;;6.68;1.65;;;7.60;99.90;;;;;;5051168;28;20369;-74
2022/04/05 00:34:16;;;;;;;7.68;1.80;;;6.80;99.90;;;;;;5051135;28;20517;-75
2022/04/05 00:36:42;;;;;;;5.13;1.35;;;6.80;99.90;;;;;;5018205;28;20111;-74
2022/04/05 00:39:08;;;;;;;6.85;1.80;;;7.70;99.90;;;;;;5050826;28;20037;-74
2022/04/05 00:41:33;;;;;;;8.50;2.03;;;6.80;99.90;;;;;;5034255;28;20037;-74
2022/04/05 00:43:59;;;;;;;9.25;1.90;;;6.80;99.90;;;;;;5034191;28;20049;-75
2022/04/05 00:46:25;;;;;;;7.47;1.92;;;6.80;99.90;;;;;;5050740;28;20044;-75
2022/04/05 00:48:59;;;;;;;6.57;1.90;;;6.80;99.90;;;;;;5034134;28;20044;-74
2022/04/05 00:51:26;;;;;;;6.55;1.83;;;6.80;99.90;;;;;;5050624;28;20045;-73
2022/04/05 00:53:54;;;;;;;4.50;1.42;;;6.80;99.90;;;;;;5034234;28;20068;-74
2022/04/05 00:56:22;;;;;;;8.90;1.70;;;6.80;99.90;;;;;;5050617;28;20036;-75
2022/04/05 00:58:50;;;;;;;9.43;2.17;;;7.00;99.90;;;;;;5050612;28;20170;-74
2022/04/05 01:01:19;;;;;;;7.53;1.60;;;7.40;99.90;;;;;;5050492;28;20067;-74
2022/04/05 01:03:50;;;;;;;6.32;1.27;;;6.80;99.90;;;;;;5050786;28;20115;-75
2022/04/05 01:06:23;;;;;;;6.70;1.65;;;6.70;99.90;;;;;;5050461;28;20115;-74
2022/04/05 01:08:49;;;;;;;8.18;1.50;;;6.80;99.90;;;;;;5050696;28;20044;-74
2022/04/05 01:11:16;;;;;;;6.10;1.90;;;6.80;99.90;;;;;;5033771;28;20036;-74
2022/04/05 01:13:43;;;;;;;8.35;1.58;;;6.70;99.90;;;;;;5033612;28;20155;-74
2022/04/05 01:16:10;;;;;;;9.55;1.83;;;6.70;99.90;;;;;;5050095;28;20045;-73
2022/04/05 01:18:36;;;;;;;9.65;2.25;;;7.10;99.90;;;;;;5033730;28;20040;-73
2022/04/05 01:21:02;;;;;;;10.93;1.63;;;6.70;99.90;;;;;;5034036;28;20053;-73
2022/04/05 01:23:28;;;;;;;7.00;1.60;;;6.70;99.90;;;;;;5033628;28;20041;-73
2022/04/05 01:25:55;;;;;;;5.60;1.38;;;6.70;99.90;;;;;;5051807;28;20063;-72
2022/04/05 01:28:20;;;;;;;9.45;1.60;;;6.70;99.90;;;;;;5053808;28;20483;-73
2022/04/05 01:30:46;;;;;;;6.57;2.00;;;6.70;99.90;;;;;;5053513;28;20051;-73
2022/04/05 01:33:13;;;;;;;6.35;2.15;;;6.70;99.90;;;;;;5053327;28;20047;-73
2022/04/05 01:35:39;;;;;;;8.85;1.75;;;7.10;99.90;;;;;;5053368;28;20080;-73
2022/04/05 01:38:07;;;;;;;9.02;2.03;;;6.70;99.90;;;;;;5036835;28;20032;-73
2022/04/05 01:40:33;;;;;;;8.82;1.52;;;7.30;99.90;;;;;;5036654;28;20040;-73
2022/04/05 01:42:59;;;;;;;8.70;1.60;;;6.60;99.90;;;;;;5053703;28;20555;-73
2022/04/05 01:45:25;;;;;;;7.78;2.33;;;6.60;99.90;;;;;;5053333;28;20076;-73
2022/04/05 01:47:50;;;;;;;6.82;1.65;;;6.70;99.90;;;;;;5053501;28;20082;-73
2022/04/05 01:50:16;;;;;;;12.52;3.33;;;6.70;99.90;;;;;;5053083;28;20537;-73
2022/04/05 01:52:42;;;;;;;5.13;1.33;;;6.70;99.90;;;;;;5036786;28;20048;-73
2022/04/05 01:55:08;;;;;;;5.30;1.65;;;6.60;99.90;;;;;;5036640;28;20094;-73
2022/04/05 01:57:34;;;;;;;11.70;3.75;;;6.60;99.90;;;;;;5053263;28;20040;-73
2022/04/05 02:00:02;;;;;;;7.05;1.80;;;6.60;99.90;;;;;;5036764;28;20033;-73
2022/04/05 02:02:27;;;;;;;11.82;1.80;;;6.60;99.90;;;;;;5053166;28;20044;-73
2022/04/05 02:04:53;;;;;;;4.07;1.35;;;6.60;99.90;;;;;;5020204;28;20511;-73
2022/04/05 02:07:19;;;;;;;5.65;1.42;;;6.60;99.90;;;;;;5036870;28;20441;-72
2022/04/05 02:09:50;;;;;;;9.52;2.33;;;6.60;99.90;;;;;;5053353;28;20559;-72
2022/04/05 02:12:17;;;;;;;7.95;2.33;;;6.60;99.90;;;;;;5053241;28;20059;-72
2022/04/05 02:14:43;;;;;;;6.65;1.58;;;6.60;99.90;;;;;;5053304;28;20044;-72
2022/04/05 02:17:09;;;;;;;5.75;1.88;;;6.60;99.90;;;;;;5053157;28;20063;-72
2022/04/05 02:19:36;;;;;;;8.10;1.90;;;6.60;99.90;;;;;;5036479;28;20041;-72
2022/04/05 02:22:02;;;;;;;10.02;1.88;;;6.60;99.90;;;;;;5053027;28;20119;-73
2022/04/05 02:24:28;;;;;;;8.25;1.58;;;6.60;99.90;;;;;;5053454;28;20052;-73
2022/04/05 02:26:54;;;;;;;8.55;1.80;;;6.60;99.90;;;;;;5037727;28;20044;-73
2022/04/05 02:29:20;;;;;;;9.38;2.05;;;6.60;99.90;;;;;;5056518;28;20102;-73
2022/04/05 02:31:45;;;;;;;10.70;2.00;;;6.60;99.90;;;;;;5040011;28;20491;-73
2022/04/05 02:34:11;;;;;;;11.45;2.63;;;6.60;99.90;;;;;;5039839;28;20432;-73
2022/04/05 02:36:37;;;;;;;6.30;1.58;;;6.60;99.90;;;;;;5056665;28;20048;-73
2022/04/05 02:39:04;;;;;;;7.85;1.90;;;6.60;99.90;;;;;;5039920;28;20040;-73
2022/04/05 02:41:30;;;;;;;10.20;2.15;;;6.70;99.90;;;;;;5056401;28;20040;-73
2022/04/05 02:43:56;;;;;;;9.82;2.30;;;6.60;99.90;;;;;;5056658;28;20479;-73
2022/04/05 02:46:22;;;;;;;15.20;2.55;;;6.60;99.90;;;;;;5056548;28;20048;-73
2022/04/05 02:48:53;;;;;;;11.40;2.30;;;6.60;99.90;;;;;;5056210;28;20041;-73
2022/04/05 02:51:18;;;;;;;7.20;1.92;;;6.60;99.90;;;;;;5039593;28;20044;-73
2022/04/05 02:53:44;;;;;;;10.07;2.13;;;6.60;99.90;;;;;;5023041;28;20048;-73
2022/04/05 02:56:10;;;;;;;11.40;1.98;;;6.60;99.90;;;;;;5056214;28;20403;-73
2022/04/05 02:58:37;;;;;;;8.85;2.08;;;6.60;99.90;;;;;;5056324;28;20051;-73
2022/04/05 03:01:04;;;;;;;12.38;2.10;;;6.60;99.90;;;;;;5023075;28;20129;-73
2022/04/05 03:03:30;;;;;;;10.68;2.17;;;6.70;99.90;;;;;;5056219;28;20048;-73
2022/04/05 03:05:56;;;;;;;11.35;2.33;;;6.80;99.90;;;;;;5056197;28;20392;-73
2022/04/05 03:08:22;;;;;;;8.85;2.45;;;6.60;99.90;;;;;;5055911;28;20048;-73
2022/04/05 03:10:49;;;;;;;8.27;2.63;;;6.60;99.90;;;;;;5055904;28;20054;-73
2022/04/05 03:13:15;;;;;;;11.15;2.38;;;6.60;99.90;;;;;;5039475;28;20043;-73
2022/04/05 03:15:41;;;;;;;14.88;2.85;;;7.30;99.90;;;;;;5055704;28;20044;-73
2022/04/05 03:18:06;;;;;;;12.52;2.88;;;6.60;99.90;;;;;;5039046;28;20043;-73
2022/04/05 03:20:32;;;;;;;8.15;2.60;;;6.60;99.90;;;;;;5055682;28;20037;-71
2022/04/05 03:23:00;;;;;;;14.32;2.80;;;6.60;99.90;;;;;;5039027;28;20089;-73
2022/04/05 03:25:27;;;;;;;11.20;4.68;;;6.60;99.90;;;;;;5055787;28;20403;-73
2022/04/05 03:27:53;;;;;;;14.30;3.78;;;6.60;99.90;;;;;;5055328;28;20086;-73
2022/04/05 03:30:22;;;;;;;11.30;3.20;;;6.60;99.90;;;;;;5055745;28;20095;-72
2022/04/05 03:32:49;;;;;;;11.68;3.03;;;6.90;99.90;;;;;;5072337;28;20040;-72
2022/04/05 03:35:16;;;;;;;10.95;3.17;;;6.60;99.90;;;;;;5038795;28;20075;-72
2022/04/05 03:37:43;;;;;;;12.85;3.35;;;6.60;99.90;;;;;;5038739;28;20049;-72
2022/04/05 03:40:10;;;;;;;10.13;3.30;;;6.60;99.90;;;;;;5055298;28;20083;-72
2022/04/05 03:42:35;;;;;;;14.77;3.85;;;6.60;99.90;;;;;;5038540;28;20118;-73
2022/04/05 03:45:01;;;;;;;15.10;3.63;;;6.60;99.90;;;;;;5055467;28;20333;-73
2022/04/05 03:47:28;;;;;;;9.07;3.15;;;6.60;99.90;;;;;;5038544;28;20044;-73
2022/04/05 03:49:54;;;;;;;11.90;3.65;;;6.60;99.90;;;;;;5038475;28;20045;-73
2022/04/05 03:52:21;;;;;;;8.32;3.72;;;6.60;99.90;;;;;;5055315;28;20131;-72
2022/04/05 03:54:47;;;;;;;11.65;3.50;;;6.60;99.90;;;;;;5054829;28;20048;-73
2022/04/05 03:57:13;;;;;;;11.23;3.72;;;6.60;99.90;;;;;;5055226;28;20036;-73
2022/04/05 03:59:39;;;;;;;9.55;3.58;;;6.60;99.90;;;;;;5055190;28;20131;-72
2022/04/05 04:02:05;;;;;;;12.45;4.15;;;6.60;99.90;;;;;;5038139;28;20040;-73
2022/04/05 04:04:31;;;;;;;12.20;3.40;;;6.90;99.90;;;;;;5038451;28;20451;-72
2022/04/05 04:06:57;;;;;;;15.85;4.53;;;6.60;99.90;;;;;;5054936;28;20147;-73
2022/04/05 04:09:23;;;;;;;14.00;2.83;;;6.70;99.90;;;;;;5054674;28;20132;-72
2022/04/05 04:11:49;;;;;;;12.68;3.38;;;6.60;99.90;;;;;;5054714;28;20048;-73
2022/04/05 04:14:15;;;;;;;16.30;3.67;;;6.60;99.90;;;;;;5037981;28;20045;-73
2022/04/05 04:16:41;;;;;;;14.88;4.45;;;6.50;99.90;;;;;;5021951;28;20033;-73
2022/04/05 04:19:07;;;;;;;15.63;2.95;;;6.60;99.90;;;;;;5037869;28;20046;-73
2022/04/05 04:21:33;;;;;;;16.10;3.00;;;6.50;99.90;;;;;;5038086;28;20037;-72
2022/04/05 04:23:59;;;;;;;11.60;2.90;;;7.10;99.90;;;;;;5054386;28;20041;-72
2022/04/05 04:26:25;;;;;;;14.70;3.40;;;6.50;99.90;;;;;;5037665;28;20067;-73
2022/04/05 04:28:55;;;;;;;14.05;2.65;;;6.50;99.90;;;;;;5054594;28;20442;-72
2022/04/05 04:31:21;;;;;;;13.00;3.53;;;6.50;99.90;;;;;;5054257;28;20053;-73
2022/04/05 04:33:47;;;;;;;10.30;2.53;;;6.90;99.90;;;;;;5054362;28;20040;-72
2022/04/05 04:36:13;;;;;;;13.85;3.17;;;6.50;99.90;;;;;;5054356;28;20048;-72
2022/04/05 04:38:39;;;;;;;18.60;4.13;;;6.40;99.90;;;;;;5054436;28;20123;-73
2022/04/05 04:41:04;;;;;;;18.33;3.10;;;7.20;99.90;;;;;;5037488;28;20174;-72
2022/04/05 04:43:30;;;;;;;14.52;2.95;;;6.50;99.90;;;;;;5021166;28;20143;-73
2022/04/05 04:45:56;;;;;;;17.65;3.65;;;6.40;99.90;;;;;;5054124;28;20044;-72
2022/04/05 04:48:22;;;;;;;16.00;3.10;;;6.40;99.90;;;;;;5037585;28;20048;-73
2022/04/05 04:50:49;;;;;;;11.05;2.80;;;6.40;99.90;;;;;;5037265;28;20487;-72
2022/04/05 04:53:15;;;;;;;12.52;2.88;;;6.40;99.90;;;;;;5054068;28;20094;-72
2022/04/05 04:55:40;;;;;;;15.45;3.45;;;6.40;99.90;;;;;;5037177;28;20505;-73
2022/04/05 04:58:06;;;;;;;13.63;2.95;;;6.40;99.90;;;;;;5037312;28;20041;-73
2022/04/05 05:00:32;;;;;;;13.00;3.17;;;6.40;99.90;;;;;;5053821;28;20047;-73
2022/04/05 05:02:57;;;;;;;13.80;3.38;;;7.00;99.90;;;;;;5037295;28;20068;-73
2022/04/05 05:05:23;;;;;;;14.95;4.07;;;6.40;99.90;;;;;;5054130;28;20448;-73
2022/04/05 05:07:51;;;;;;;14.68;3.03;;;6.40;99.90;;;;;;5037342;28;20040;-73
2022/04/05 05:10:18;;;;;;;15.27;2.88;;;6.40;99.90;;;;;;5053873;28;20089;-73
2022/04/05 05:12:44;;;;;;;14.20;4.25;;;6.50;99.90;;;;;;5053707;28;20044;-73
2022/04/05 05:15:18;;;;;;;16.35;3.58;;;6.40;99.90;;;;;;5053674;28;20047;-73
2022/04/05 05:17:46;;;;;;;15.45;3.05;;;6.40;99.90;;;;;;5036864;28;20037;-73
2022/04/05 05:20:13;;;;;;;10.55;2.88;;;6.40;99.90;;;;;;5036876;28;20052;-73
2022/04/05 05:22:39;;;;;;;14.10;3.75;;;6.40;99.90;;;;;;5037004;28;20119;-73
2022/04/05 05:25:07;;;;;;;18.45;3.63;;;6.40;99.90;;;;;;5037382;28;20048;-74
2022/04/05 05:27:32;;;;;;;12.82;3.05;;;6.40;99.90;;;;;;5049891;28;20091;-73
2022/04/05 05:29:58;;;;;;;16.77;3.47;;;6.40;99.90;;;;;;5050314;28;20530;-73
2022/04/05 05:32:24;;;;;;;16.05;2.97;;;6.50;99.90;;;;;;5050263;28;20057;-74
2022/04/05 05:34:50;;;;;;;11.50;2.75;;;6.40;99.90;;;;;;5050083;28;20041;-72
2022/04/05 05:37:15;;;;;;;17.42;3.85;;;6.50;99.90;;;;;;5050105;28;20087;-72
2022/04/05 05:39:41;;;;;;;16.92;2.83;;;6.50;99.90;;;;;;5050428;28;20029;-73
2022/04/05 05:42:08;;;;;;;9.40;3.17;;;6.50;99.90;;;;;;5033615;28;20124;-73
2022/04/05 05:44:34;;;;;;;17.17;3.58;;;6.50;99.90;;;;;;5050363;28;20441;-73
2022/04/05 05:47:01;;;;;;;11.95;3.20;;;6.60;99.90;;;;;;5050187;28;20047;-73
2022/04/05 05:49:27;;;;;;;10.70;3.25;;;6.60;99.90;;;;;;5050114;28;20054;-73
2022/04/05 05:51:52;;;;;;;9.85;3.65;;;7.30;99.90;;;;;;5050093;28;20091;-72
2022/04/05 05:54:19;;;;;;;14.02;4.07;;;6.60;99.90;;;;;;5049865;28;20400;-72
2022/04/05 05:56:45;;;;;;;9.85;3.58;;;6.60;99.90;;;;;;5033754;28;20033;-73
2022/04/05 05:59:11;;;;;;;10.23;4.18;;;6.70;99.90;;;;;;5033675;28;20481;-73
2022/04/05 06:01:37;;;;;;;17.00;3.92;;;6.70;99.90;;;;;;5051170;28;20040;-72
2022/04/05 06:04:02;;;;;;;9.52;3.53;;;7.10;99.90;;;;;;5037206;28;20504;-73
2022/04/05 06:06:31;;;;;;;9.40;3.90;;;6.70;99.90;;;;;;5020686;28;20045;-73
2022/04/05 06:08:58;;;;;;;16.67;5.63;;;6.80;99.90;;;;;;5053643;28;20041;-73
2022/04/05 06:11:24;;;;;;;14.52;4.00;;;6.70;99.90;;;;;;5053614;28;20060;-72
2022/04/05 06:13:50;;;;;;;12.48;4.53;;;6.80;99.90;;;;;;5053662;28;20048;-74
2022/04/05 06:16:18;;;;;;;13.65;4.20;;;6.80;99.90;;;;;;5037024;28;20044;-74
2022/04/05 06:18:44;;;;;;;13.15;4.13;;;6.80;99.90;;;;;;5053460;28;20048;-72
2022/04/05 06:21:10;;;;;;;11.05;3.38;;;6.80;99.90;;;;;;5053491;28;20036;-72
2022/04/05 06:23:36;;;;;;;17.73;4.15;;;6.80;99.90;;;;;;5053416;28;20404;-72
2022/04/05 06:26:02;;;;;;;9.85;3.40;;;6.80;99.90;;;;;;5053431;28;20488;-72
2022/04/05 06:28:29;;;;;;;8.70;3.42;;;6.80;99.90;;;;;;5052979;28;20107;-72
2022/04/05 06:30:55;;;;;;;9.13;3.70;;;6.80;99.90;;;;;;5053556;28;20136;-72
2022/04/05 06:33:24;;;;;;;12.13;3.33;;;6.80;99.90;;;;;;5053225;28;20469;-72
2022/04/05 06:35:58;;;;;;;11.30;3.78;;;6.80;99.90;;;;;;5053092;28;20095;-72
2022/04/05 06:38:25;;;;;;;12.35;3.15;;;6.80;99.90;;;;;;5036478;28;20100;-73
2022/04/05 06:40:52;;;;;;;11.38;3.00;;;6.80;99.90;;;;;;5053117;28;20120;-73
2022/04/05 06:43:25;;;;;;;8.20;3.58;;;6.80;99.90;;;;;;5036515;28;20044;-73
2022/04/05 06:45:51;;;;;;;11.10;3.10;;;6.80;99.90;;;;;;5053380;28;20041;-73
2022/04/05 06:48:18;;;;;;;9.73;3.13;;;6.90;99.90;;;;;;5053222;28;20496;-73
2022/04/05 06:50:44;;;;;;;8.15;3.60;;;7.40;99.90;;;;;;5052869;28;20056;-73
2022/04/05 06:53:11;;;;;;;6.68;2.70;;;7.00;99.90;;;;;;5036665;28;20049;-73
2022/04/05 06:55:37;;;;;;;10.18;3.17;;;7.00;99.90;;;;;;5052767;28;20048;-73
2022/04/05 06:58:03;;;;;;;12.10;4.15;;;7.10;99.90;;;;;;5052761;28;20040;-71
2022/04/05 07:00:29;;;;;;;10.93;3.03;;;7.80;99.90;;;;;;5019622;28;20382;-72
2022/04/05 07:02:57;;;;;;;8.02;3.33;;;7.40;99.90;;;;;;5052593;28;20064;-72
2022/04/05 07:05:23;;;;;;;7.13;2.50;;;7.20;99.90;;;;;;5019419;28;20186;-72
2022/04/05 07:07:49;;;;;;;10.60;2.92;;;7.30;99.90;;;;;;5035760;28;20408;-72
2022/04/05 07:10:17;;;;;;;8.38;2.95;;;7.90;99.90;;;;;;5035766;28;20127;-72
2022/04/05 07:12:44;;;;;;;10.77;2.95;;;7.40;99.90;;;;;;5019263;28;20041;-72
2022/04/05 07:15:10;;;;;;;9.52;2.70;;;7.40;99.90;;;;;;5035558;28;20060;-72
2022/04/05 07:17:39;;;;;;;9.98;2.55;;;7.50;99.90;;;;;;5052464;28;20044;-72
2022/04/05 07:20:09;;;;;;;7.78;2.60;;;7.50;99.90;;;;;;5052204;28;20106;-72
2022/04/05 07:22:47;;;;;;;6.70;2.25;;;7.50;99.90;;;;;;5019545;28;20087;-73
2022/04/05 07:25:13;;;;;;;9.68;2.20;;;7.90;99.90;;;;;;5052172;28;20080;-73
2022/04/05 07:27:39;;;;;;;9.13;2.72;;;8.10;99.90;;;;;;5053539;28;20107;-73
2022/04/05 07:30:05;;;;;;;5.20;1.90;;;7.50;99.90;;;;;;5055538;28;20131;-73
2022/04/05 07:32:42;;;;;;;11.70;3.00;;;7.50;99.90;;;;;;5039002;28;20059;-73
2022/04/05 07:35:08;;;;;;;8.57;2.08;;;7.50;99.90;;;;;;5071806;28;20420;-73
2022/04/05 07:37:35;;;;;;;8.45;2.22;;;7.60;99.90;;;;;;5055095;28;20045;-73
2022/04/05 07:40:03;;;;;;;5.82;1.80;;;7.60;99.90;;;;;;5039131;28;20423;-73
2022/04/05 07:42:29;;;;;;;5.57;1.83;;;7.70;99.90;;;;;;5055255;28;20067;-72
2022/04/05 07:44:55;;;;;;;7.47;2.10;;;7.70;99.90;;;;;;5055199;28;20048;-73
2022/04/05 07:47:20;;;;;;;10.23;2.35;;;7.70;99.90;;;;;;5038830;28;20123;-73
2022/04/05 07:49:46;;;;;;;10.40;2.35;;;7.70;99.90;;;;;;5055205;28;20036;-73
2022/04/05 07:52:12;;;;;;;10.75;2.92;;;7.80;99.90;;;;;;5054924;28;20048;-73
2022/04/05 07:54:38;;;;;;;11.10;2.25;;;7.80;99.90;;;;;;5038322;28;20119;-73
2022/04/05 07:57:04;;;;;;;4.85;1.98;;;7.80;99.90;;;;;;5055257;28;20049;-72
2022/04/05 07:59:31;;;;;;;8.35;2.10;;;7.80;99.90;;;;;;5055178;28;20047;-73
2022/04/05 08:01:57;;;;;;;7.97;2.22;;;7.70;99.90;;;;;;5038279;28;20045;-73
2022/04/05 08:04:22;;;;;;;9.20;2.50;;;7.60;99.90;;;;;;5054891;28;20070;-73
2022/04/05 08:06:48;;;;;;;7.10;1.95;;;7.60;99.90;;;;;;5054849;28;20111;-73
2022/04/05 08:09:14;;;;;;;8.52;2.50;;;7.60;99.90;;;;;;5038246;28;20045;-73
2022/04/05 08:11:39;;;;;;;10.07;2.45;;;7.60;99.90;;;;;;5021363;28;20455;-72
2022/04/05 08:14:05;;;;;;;9.25;2.70;;;7.60;99.90;;;;;;5054317;28;20051;-73
2022/04/05 08:16:31;;;;;;;7.35;2.30;;;7.60;99.90;;;;;;5054570;28;20094;-73
2022/04/05 08:18:57;;;;;;;5.88;2.15;;;7.70;99.90;;;;;;5054348;28;20041;-73
2022/04/05 08:21:22;;;;;;;8.40;2.30;;;7.80;99.90;;;;;;5037939;28;20032;-73
2022/04/05 08:23:50;;;;;;;10.98;2.28;;;7.70;99.90;;;;;;5037669;28;20036;-74
2022/04/05 08:26:16;;;;;;;7.05;2.30;;;7.70;99.90;;;;;;5054149;28;20043;-73
2022/04/05 08:28:42;;;;;;;8.30;1.90;;;7.80;99.90;;;;;;5021251;28;20063;-73
2022/04/05 08:31:08;;;;;;;5.03;2.13;;;8.50;99.90;;;;;;5037769;28;20049;-73
2022/04/05 08:33:34;;;;;;;6.78;2.65;;;7.90;99.90;;;;;;5054469;28;20033;-73
2022/04/05 08:36:00;;;;;;;7.78;2.42;;;8.00;99.90;;;;;;5021262;28;20032;-72
2022/04/05 08:38:28;;;;;;;4.32;1.70;;;8.00;99.90;;;;;;5037858;28;20556;-73
2022/04/05 08:40:54;;;;;;;6.80;1.83;;;8.40;99.90;;;;;;5054102;28;20036;-73
2022/04/05 08:43:20;;;;;;;6.20;2.22;;;8.20;99.90;;;;;;5037339;28;20093;-72
2022/04/05 08:45:58;;;;;;;5.32;2.05;;;8.20;99.90;;;;;;5053833;28;20040;-72
2022/04/05 08:48:26;;;;;;;4.25;1.80;;;8.20;99.90;;;;;;5054041;28;20048;-73
2022/04/05 08:50:53;;;;;;;5.30;1.88;;;8.20;99.90;;;;;;5053959;28;20052;-73
2022/04/05 08:53:19;;;;;;;7.13;2.00;;;8.30;99.90;;;;;;5054036;28;20044;-73
2022/04/05 08:55:45;;;;;;;5.03;2.15;;;8.30;99.90;;;;;;5053731;28;20476;-72
2022/04/05 08:58:13;;;;;;;7.57;1.80;;;8.40;99.90;;;;;;5037310;28;20055;-72
2022/04/05 09:00:39;;;;;;;5.57;1.75;;;8.40;99.90;;;;;;5021522;28;20033;-73
2022/04/05 09:03:05;;;;;;;10.05;2.10;;;8.30;99.90;;;;;;5053983;28;20047;-72
2022/04/05 09:05:35;;;;;;;6.68;1.38;;;8.30;99.90;;;;;;5053728;28;20125;-72
2022/04/05 09:08:22;;;;;;;5.60;1.60;;;8.30;99.90;;;;;;5053800;28;20040;-73
2022/04/05 09:10:54;;;;;;;6.05;1.70;;;8.50;99.90;;;;;;5053680;28;20372;-72
2022/04/05 09:13:27;;;;;;;3.92;1.55;;;8.60;99.90;;;;;;5053763;28;20040;-72
2022/04/05 09:15:57;;;;;;;7.95;2.13;;;8.60;99.90;;;;;;5053669;28;20044;-71
2022/04/05 09:18:35;;;;;;;2.00;1.25;;;8.70;99.90;;;;;;5053721;28;20045;-72
2022/04/05 09:21:02;;;;;;;4.75;1.95;;;8.70;99.90;;;;;;5037333;28;20489;-73
2022/04/05 09:23:34;;;;;;;4.90;1.60;;;8.80;99.90;;;;;;5053936;28;20090;-73
2022/04/05 09:26:01;;;;;;;;;;;8.80;99.90;;;;;;5071139;28;20496;-72
2022/04/05 09:28:38;;;;;;;5.97;2.28;;;8.90;99.90;;;;;;5053586;28;20253;-72
2022/04/05 09:31:17;;;;;;;5.40;1.40;;;8.90;99.90;;;;;;5053555;28;20048;-73
2022/04/05 09:34:05;;;;;;;5.97;1.67;;;8.90;99.90;;;;;;5036932;28;20052;-72
2022/04/05 09:36:43;;;;;;;4.80;1.63;;;8.90;99.90;;;;;;5039350;28;20075;-72
2022/04/05 09:39:23;;;;;;;3.58;1.42;;;8.80;99.90;;;;;;5040947;28;20044;-72
2022/04/05 09:42:09;;;;;;;5.30;1.88;;;8.80;99.90;;;;;;5057818;28;20368;-72
2022/04/05 09:44:37;;;;;;;4.07;1.60;;;8.80;99.90;;;;;;5040528;28;20048;-72
2022/04/05 09:47:21;;;;;;;6.05;1.67;;;8.80;99.90;;;;;;5057345;28;20098;-72
2022/04/05 09:49:49;;;;;;;6.03;1.45;;;8.90;99.90;;;;;;5041046;28;20487;-72
2022/04/05 09:52:33;;;;;;;3.13;1.40;;;9.00;99.90;;;;;;5057603;28;20062;-72
2022/04/05 09:55:15;;;;;;;4.75;1.60;;;9.20;99.90;;;;;;5040416;28;20065;-72
2022/04/05 09:57:41;;;;;;;3.70;1.58;;;9.00;99.90;;;;;;5057180;28;20048;-72
2022/04/05 10:00:15;;;;;;;3.83;1.25;;;9.00;99.90;;;;;;5057198;28;20075;-71
2022/04/05 10:03:00;;;;;;;5.60;2.20;;;9.00;99.90;;;;;;5057364;28;20480;-72
2022/04/05 10:05:27;;;;;;;5.70;1.35;;;9.00;99.90;;;;;;5057144;28;20048;-72
2022/04/05 10:07:54;;;;;;;4.70;1.10;;;9.00;99.90;;;;;;5056950;28;20119;-72
2022/04/05 10:10:20;;;;;;;5.28;1.70;;;9.00;99.90;;;;;;5057020;28;20041;-72
2022/04/05 10:12:47;;;;;;;4.20;1.55;;;9.00;99.90;;;;;;5056947;28;20051;-72
2022/04/05 10:15:13;;;;;;;2.75;1.40;;;8.90;99.90;;;;;;5073409;28;20135;-72
2022/04/05 10:17:45;;;;;;;3.00;1.30;;;8.90;99.90;;;;;;5040564;28;20122;-72
2022/04/05 10:20:12;;;;;;;5.03;1.13;;;9.30;99.90;;;;;;5057119;28;20484;-73
2022/04/05 10:22:42;;;;;;;4.00;1.30;;;8.90;99.90;;;;;;5056777;28;20056;-72
2022/04/05 10:25:08;;;;;;;3.78;1.75;;;8.80;99.90;;;;;;5056818;28;20044;-72
2022/04/05 10:27:34;;;;;;;5.13;1.45;;;8.80;99.90;;;;;;5056780;28;20048;-72
2022/04/05 10:30:09;;;;;;;5.32;1.80;;;8.80;99.90;;;;;;5040128;28;20057;-71
2022/04/05 10:32:48;;;;;;;3.05;1.25;;;8.80;99.90;;;;;;5040019;28;20086;-71
2022/04/05 10:35:15;;;;;;;4.82;1.60;;;8.70;99.90;;;;;;5056503;28;20072;-72
2022/04/05 10:37:41;;;;;;;2.90;1.30;;;8.90;99.90;;;;;;5039916;28;20447;-72
2022/04/05 10:40:10;;;;;;;2.60;1.33;;;8.90;99.90;;;;;;5039851;28;20044;-72
2022/04/05 10:42:48;;;;;;;2.83;1.60;;;8.90;99.90;;;;;;5039783;28;20039;-72
2022/04/05 10:45:20;;;;;;;2.40;1.27;;;9.00;99.90;;;;;;5056458;28;20101;-72
2022/04/05 10:47:58;;;;;;;1.35;1.00;;;9.10;99.90;;;;;;5055605;28;20040;-71
2022/04/05 10:50:24;;;;;;;3.10;1.33;;;9.10;99.90;;;;;;5056230;28;20040;-72
2022/04/05 10:53:12;;;;;;;1.70;1.25;;;9.10;99.90;;;;;;5056487;28;20102;-72
2022/04/05 10:56:02;;;;;;;1.70;1.30;;;9.10;99.90;;;;;;5056100;28;20048;-72
2022/04/05 10:58:38;;;;;;;4.35;1.50;;;9.10;99.90;;;;;;5056528;28;20041;-72
2022/04/05 11:01:22;;;;;;;1.98;1.30;;;9.20;99.90;;;;;;5056157;28;20037;-72
2022/04/05 11:04:09;;;;;;;5.60;2.80;;;9.20;99.90;;;;;;5056002;28;20040;-72
2022/04/05 11:07:05;;;;;;;3.17;1.30;;;9.30;99.90;;;;;;5039389;28;20036;-72
2022/04/05 11:09:44;;;;;;;5.07;1.20;;;9.40;99.90;;;;;;5055743;28;20131;-72
2022/04/05 11:12:16;;;;;;;1.88;1.17;;;9.40;99.90;;;;;;5056266;28;20052;-72
2022/04/05 11:14:50;;;;;;;4.45;1.40;;;9.50;99.90;;;;;;5055817;28;20186;-72
2022/04/05 11:17:18;;;;;;;2.13;1.42;;;9.60;99.90;;;;;;5039262;28;20053;-72
2022/04/05 11:19:47;;;;;;;2.22;1.45;;;9.80;99.90;;;;;;5055757;28;20040;-73
2022/04/05 11:22:22;;;;;;;1.83;1.20;;;9.80;99.90;;;;;;5055702;28;20036;-74
2022/04/05 11:24:55;;;;;;;1.73;1.20;;;9.90;99.90;;;;;;5055818;28;20488;-72
2022/04/05 11:27:29;;;;;;;1.35;0.90;;;9.90;99.90;;;;;;5055841;28;20036;-72
2022/04/05 11:30:23;;;;;;;3.08;1.05;;;10.00;99.90;;;;;;5055423;28;20075;-71
2022/04/05 11:33:09;;;;;;;2.03;1.30;;;10.00;99.90;;;;;;5055816;28;20127;-72
2022/04/05 11:35:49;;;;;;;2.25;1.35;;;10.20;99.90;;;;;;5055408;28;20041;-72
2022/04/05 11:38:17;;;;;;;2.53;1.88;;;10.30;99.90;;;;;;5055397;28;20090;-72
2022/04/05 11:40:53;;;;;;;2.33;1.40;;;10.30;99.90;;;;;;5038752;28;20082;-72
2022/04/05 11:43:31;;;;;;;1.95;1.42;;;10.40;99.90;;;;;;5055569;28;20044;-72
2022/04/05 11:46:11;;;;;;;2.50;1.45;;;10.40;99.90;;;;;;5055324;28;20108;-72
2022/04/05 11:48:45;;;;;;;1.70;1.23;;;10.50;99.90;;;;;;5038672;28;20078;-72
2022/04/05 11:51:14;;;;;;;1.55;1.15;;;10.40;99.90;;;;;;5055151;28;20046;-71
2022/04/05 11:53:41;;;;;;;1.95;1.50;;;10.40;99.90;;;;;;5055021;28;20040;-72
2022/04/05 11:56:22;;;;;;;3.30;1.52;;;10.30;99.90;;;;;;5055066;28;20043;-72
2022/04/05 11:58:51;;;;;;;2.38;1.88;;;10.20;99.90;;;;;;5038475;28;20114;-70
2022/04/05 12:01:29;;;;;;;2.15;1.55;;;10.20;99.90;;;;;;5038618;28;20048;-71
2022/04/05 12:03:59;;;;;;;2.50;1.52;;;10.10;99.90;;;;;;5054875;28;20052;-71
2022/04/05 12:06:29;;;;;;;2.42;1.63;;;10.10;99.90;;;;;;5054878;28;20072;-71
2022/04/05 12:08:57;;;;;;;2.70;1.70;;;10.10;99.90;;;;;;5054981;28;20040;-71
2022/04/05 12:11:24;;;;;;;2.13;1.58;;;10.10;99.90;;;;;;5054551;28;20036;-71
2022/04/05 12:14:05;;;;;;;2.55;1.85;;;10.20;99.90;;;;;;5038084;28;20041;-71
2022/04/05 12:17:03;;;;;;;2.67;1.20;;;10.20;99.90;;;;;;5038357;28;20058;-72
2022/04/05 12:19:33;;;;;;;2.80;1.50;;;10.30;99.90;;;;;;4995029;28;20282;-72
2022/04/05 12:22:01;;;;;;;3.13;1.50;;;10.50;99.90;;;;;;5054566;28;20082;-71
2022/04/05 12:24:29;;;;;;;2.33;1.70;;;10.30;99.90;;;;;;5054415;28;20094;-71
2022/04/05 12:26:56;;;;;;;2.38;1.40;;;10.70;99.90;;;;;;5054451;28;20048;-71
2022/04/05 12:29:23;;;;;;;2.35;1.63;;;10.50;99.90;;;;;;5054202;28;20125;-71
2022/04/05 12:31:49;;;;;;;3.13;2.13;;;10.50;99.90;;;;;;5054297;28;20044;-72
2022/04/05 12:34:15;;;;;;;4.30;2.80;;;10.60;99.90;;;;;;5037836;28;20056;-72
2022/04/05 12:36:55;;;;;;;3.50;2.50;;;10.70;99.90;;;;;;5037981;28;20051;-71
2022/04/05 12:39:22;;;;;;;2.90;2.22;;;10.70;99.90;;;;;;5054599;28;20085;-73
2022/04/05 12:41:50;;;;;;;3.42;2.45;;;10.70;99.90;;;;;;5054109;28;20044;-72
2022/04/05 12:44:18;;;;;;;4.18;2.80;;;10.70;99.90;;;;;;5054244;28;20040;-71
2022/04/05 12:46:53;;;;;;;2.88;2.10;;;10.60;99.90;;;;;;5037520;28;20045;-70
2022/04/05 12:49:43;;;;;;;3.28;2.30;;;10.90;99.90;;;;;;5054044;28;20044;-71
2022/04/05 12:52:23;;;;;;;4.27;2.60;;;10.60;99.90;;;;;;5027131;28;20052;-71
2022/04/05 12:54:52;;;;;;;3.80;2.80;;;10.70;99.90;;;;;;5054216;28;20065;-72
2022/04/05 12:57:21;;;;;;;3.90;2.80;;;10.80;99.90;;;;;;5070648;28;20052;-73
2022/04/05 12:59:49;;;;;;;5.22;3.15;;;10.80;99.90;;;;;;5037619;28;20159;-71